createdAt,value
2023-02-17T00:00:05.926Z,68.72
2023-02-17T00:02:49.795Z,69.14
2023-02-17T00:05:34.954Z,69.35
2023-02-17T00:08:18.904Z,69.11
2023-02-17T00:11:02.976Z,68.37
2023-02-17T00:13:47.395Z,69.36
2023-02-17T00:16:31.268Z,69.13
2023-02-17T00:19:27.201Z,69.73
2023-02-17T00:22:12.441Z,70.03
2023-02-17T00:24:56.211Z,70.40
2023-02-17T00:27:40.069Z,70.46
2023-02-17T00:30:24.119Z,71.32
2023-02-17T00:33:09.926Z,70.22
2023-02-17T00:35:53.569Z,70.93
2023-02-17T00:38:38.893Z,71.66
2023-02-17T00:41:23.638Z,71.90
2023-02-17T00:44:07.396Z,72.00
2023-02-17T00:46:51.673Z,71.54
2023-02-17T00:49:37.212Z,71.66
2023-02-17T00:52:21.054Z,71.90
2023-02-17T00:55:06.733Z,71.12
2023-02-17T00:57:50.857Z,70.53
2023-02-17T01:00:34.956Z,71.23
2023-02-17T01:03:20.286Z,70.90
2023-02-17T01:06:09.048Z,71.70
2023-02-17T01:08:53.208Z,71.87
2023-02-17T01:11:38.966Z,71.95
2023-02-17T01:14:22.820Z,72.07
2023-02-17T01:17:06.688Z,71.85
2023-02-17T01:19:50.513Z,71.50
2023-02-17T01:22:35.030Z,72.54
2023-02-17T01:25:18.891Z,72.97
2023-02-17T01:28:04.631Z,72.59
2023-02-17T01:30:49.353Z,72.20
2023-02-17T01:33:33.212Z,72.63
2023-02-17T01:36:19.715Z,73.36
2023-02-17T01:39:03.594Z,72.70
2023-02-17T01:41:47.658Z,72.58
2023-02-17T01:44:34.150Z,72.57
2023-02-17T01:47:18.004Z,72.29
2023-02-17T01:50:01.846Z,72.30
2023-02-17T01:52:47.665Z,72.10
2023-02-17T01:55:35.090Z,72.51
2023-02-17T01:58:25.968Z,72.02
2023-02-17T02:01:11.192Z,72.83
2023-02-17T02:03:55.879Z,72.85
2023-02-17T02:06:42.065Z,73.39
2023-02-17T02:09:31.443Z,73.01
2023-02-17T02:12:23.558Z,72.64
2023-02-17T02:15:10.647Z,72.56
2023-02-17T02:18:24.405Z,73.84
2023-02-17T02:21:34.836Z,73.45
2023-02-17T02:24:29.379Z,72.81
2023-02-17T02:27:41.750Z,72.41
2023-02-17T02:30:42.425Z,72.05
2023-02-17T02:33:35.547Z,72.58
2023-02-17T02:36:23.963Z,73.36
2023-02-17T02:39:13.270Z,73.92
2023-02-17T02:42:00.140Z,74.53
2023-02-17T02:44:44.325Z,73.87
2023-02-17T02:47:44.754Z,73.55
2023-02-17T02:50:44.574Z,74.48
2023-02-17T02:53:53.626Z,73.55
2023-02-17T02:56:54.260Z,74.16
2023-02-17T02:59:53.711Z,74.15
2023-02-17T03:02:44.258Z,73.76
2023-02-17T03:05:36.819Z,74.98
2023-02-17T03:08:26.176Z,75.41
2023-02-17T03:11:10.060Z,74.62
2023-02-17T03:13:53.765Z,74.10
2023-02-17T03:16:40.141Z,73.67
2023-02-17T03:19:26.152Z,73.50
2023-02-17T03:22:20.901Z,73.89
2023-02-17T03:25:05.570Z,72.99
2023-02-17T03:27:49.731Z,73.33
2023-02-17T03:30:33.631Z,72.82
2023-02-17T03:33:17.524Z,74.29
2023-02-17T03:36:01.297Z,73.11
2023-02-17T03:38:46.670Z,73.45
2023-02-17T03:41:30.382Z,73.29
2023-02-17T03:44:14.186Z,73.47
2023-02-17T03:46:57.954Z,73.01
2023-02-17T03:49:41.636Z,73.16
2023-02-17T03:52:25.441Z,72.77
2023-02-17T03:55:10.682Z,72.93
2023-02-17T03:57:55.859Z,72.70
2023-02-17T04:00:39.828Z,72.93
2023-02-17T04:03:23.734Z,73.44
2023-02-17T04:06:08.842Z,72.96
2023-02-17T04:08:52.658Z,72.32
2023-02-17T04:11:38.082Z,72.96
2023-02-17T04:14:21.825Z,73.53
2023-02-17T04:17:05.581Z,73.37
2023-02-17T04:19:49.347Z,73.24
2023-02-17T04:22:33.125Z,73.58
2023-02-17T04:25:17.015Z,74.85
2023-02-17T04:28:02.250Z,73.98
2023-02-17T04:30:46.605Z,73.86
2023-02-17T04:33:30.969Z,73.29
2023-02-17T04:36:14.755Z,72.70
2023-02-17T04:38:58.833Z,72.74
2023-02-17T04:41:42.650Z,72.47
2023-02-17T04:44:28.010Z,72.35
2023-02-17T04:47:11.844Z,72.02
2023-02-17T04:49:55.727Z,72.36
2023-02-17T04:52:39.929Z,72.08
2023-02-17T04:55:23.871Z,72.25
2023-02-17T04:58:07.694Z,72.42
2023-02-17T05:00:52.925Z,72.27
2023-02-17T05:03:36.786Z,71.25
2023-02-17T05:06:20.611Z,70.56
2023-02-17T05:09:04.588Z,69.97
2023-02-17T05:11:48.315Z,72.52
2023-02-17T05:14:32.080Z,72.34
2023-02-17T05:17:17.286Z,73.69
2023-02-17T05:20:01.387Z,72.80
2023-02-17T05:22:46.631Z,72.77
2023-02-17T05:25:30.853Z,71.90
2023-02-17T05:28:14.692Z,71.70
2023-02-17T05:30:58.589Z,71.10
2023-02-17T05:33:43.752Z,71.77
2023-02-17T05:36:27.515Z,70.87
2023-02-17T05:39:11.332Z,70.57
2023-02-17T05:41:56.657Z,70.56
2023-02-17T05:44:40.526Z,70.19
2023-02-17T05:47:26.650Z,69.97
2023-02-17T05:50:13.529Z,68.99
2023-02-17T05:52:57.450Z,68.15
2023-02-17T05:55:41.167Z,67.43
2023-02-17T05:58:25.159Z,66.40
2023-02-17T06:01:09.911Z,66.31
2023-02-17T06:03:53.905Z,65.68
2023-02-17T06:06:39.238Z,65.36
2023-02-17T06:09:23.102Z,65.52
2023-02-17T06:12:07.245Z,66.76
2023-02-17T06:14:50.994Z,66.77
2023-02-17T06:17:34.789Z,66.28
2023-02-17T06:20:18.833Z,66.59
2023-02-17T06:23:03.994Z,65.55
2023-02-17T06:25:47.887Z,64.94
2023-02-17T06:28:33.645Z,64.21
2023-02-17T06:31:18.786Z,63.98
2023-02-17T06:34:04.327Z,63.88
2023-02-17T06:36:50.402Z,63.47
2023-02-17T06:39:35.625Z,62.29
2023-02-17T06:42:19.684Z,62.75
2023-02-17T06:45:06.138Z,63.25
2023-02-17T06:47:50.130Z,62.59
2023-02-17T06:50:34.067Z,62.03
2023-02-17T06:53:17.853Z,60.94
2023-02-17T06:56:03.059Z,58.52
2023-02-17T06:58:46.916Z,57.93
2023-02-17T07:01:31.228Z,56.82
2023-02-17T07:04:15.074Z,58.23
2023-02-17T07:06:59.040Z,57.20
2023-02-17T07:09:42.905Z,57.34
2023-02-17T07:12:29.141Z,56.35
2023-02-17T07:15:13.108Z,54.95
2023-02-17T07:17:56.999Z,54.98
2023-02-17T07:20:40.744Z,56.64
2023-02-17T07:23:25.081Z,55.13
2023-02-17T07:26:10.668Z,53.78
2023-02-17T07:28:56.084Z,54.18
2023-02-17T07:31:40.012Z,53.25
2023-02-17T07:34:23.935Z,52.50
2023-02-17T07:37:07.731Z,52.52
2023-02-17T07:39:52.480Z,53.04
2023-02-17T07:42:36.306Z,52.74
2023-02-17T07:45:21.563Z,51.69
2023-02-17T07:48:06.105Z,52.08
2023-02-17T07:50:49.970Z,53.42
2023-02-17T07:53:34.018Z,53.19
2023-02-17T07:56:19.964Z,52.46
2023-02-17T07:59:03.854Z,52.72
2023-02-17T08:01:49.890Z,50.83
2023-02-17T08:04:33.968Z,51.37
2023-02-17T08:07:20.298Z,50.86
2023-02-17T08:10:22.728Z,51.57
2023-02-17T08:13:21.909Z,51.63
2023-02-17T08:16:06.574Z,51.58
2023-02-17T08:18:51.923Z,51.69
2023-02-17T08:21:36.044Z,50.91
2023-02-17T08:24:21.456Z,53.55
2023-02-17T08:27:06.623Z,52.84
2023-02-17T08:29:51.338Z,51.67
2023-02-17T08:32:35.152Z,49.97
2023-02-17T08:35:22.609Z,49.47
2023-02-17T08:38:06.694Z,49.59
2023-02-17T08:40:51.040Z,48.97
2023-02-17T08:43:34.916Z,49.30
2023-02-17T08:46:20.403Z,49.49
2023-02-17T08:49:05.065Z,49.88
2023-02-17T08:51:51.388Z,48.89
2023-02-17T08:54:35.529Z,49.16
2023-02-17T08:57:21.769Z,49.21
2023-02-17T09:00:08.374Z,49.20
2023-02-17T09:02:52.874Z,49.03
2023-02-17T09:05:37.181Z,49.26
2023-02-17T09:08:23.606Z,49.25
2023-02-17T09:11:09.510Z,48.75
2023-02-17T09:13:53.451Z,48.59
2023-02-17T09:16:39.602Z,47.55
2023-02-17T09:19:25.977Z,47.87
2023-02-17T09:22:13.616Z,48.55
2023-02-17T09:25:03.010Z,48.52
2023-02-17T09:27:47.134Z,48.33
2023-02-17T09:30:31.684Z,48.30
2023-02-17T09:33:15.563Z,48.44
2023-02-17T09:35:59.609Z,48.08
2023-02-17T09:38:44.254Z,48.50
2023-02-17T09:41:35.782Z,48.31
2023-02-17T09:44:23.966Z,48.90
2023-02-17T09:47:13.414Z,48.28
2023-02-17T09:50:03.693Z,47.99
2023-02-17T09:52:56.689Z,48.10
2023-02-17T09:55:46.207Z,48.11
2023-02-17T09:58:36.050Z,48.21
2023-02-17T10:01:22.997Z,48.37
2023-02-17T10:04:12.230Z,47.65
2023-02-17T10:07:02.895Z,47.24
2023-02-17T10:09:52.433Z,47.02
2023-02-17T10:12:41.341Z,46.39
2023-02-17T10:15:32.015Z,46.47
2023-02-17T10:18:22.902Z,45.33
2023-02-17T10:21:13.257Z,45.57
2023-02-17T10:23:57.583Z,45.37
2023-02-17T10:26:53.686Z,44.80
2023-02-17T10:29:49.564Z,44.99
2023-02-17T10:32:46.001Z,45.72
2023-02-17T10:35:42.832Z,45.34
2023-02-17T10:38:42.934Z,45.08
2023-02-17T10:41:32.669Z,44.12
2023-02-17T10:44:22.488Z,43.93
2023-02-17T10:47:07.162Z,43.18
2023-02-17T10:49:55.867Z,43.49
2023-02-17T10:52:41.613Z,43.69
2023-02-17T10:55:35.109Z,44.71
2023-02-17T10:58:26.140Z,43.78
2023-02-17T11:01:10.206Z,44.46
2023-02-17T11:04:03.231Z,44.83
2023-02-17T11:06:51.553Z,44.74
2023-02-17T11:09:36.458Z,44.93
2023-02-17T11:12:26.367Z,44.69
2023-02-17T11:15:19.713Z,44.76
2023-02-17T11:18:11.699Z,44.09
2023-02-17T11:21:03.108Z,44.90
2023-02-17T11:23:55.034Z,44.00
2023-02-17T11:26:39.348Z,44.45
2023-02-17T11:29:24.976Z,43.75
2023-02-17T11:32:12.534Z,44.01
2023-02-17T11:34:58.917Z,43.83
2023-02-17T11:37:43.956Z,43.07
2023-02-17T11:40:30.972Z,43.18
2023-02-17T11:43:19.279Z,42.96
2023-02-17T11:46:16.575Z,42.55
2023-02-17T11:49:39.935Z,43.24
2023-02-17T11:52:39.836Z,42.77
2023-02-17T11:55:30.487Z,41.96
2023-02-17T11:58:31.083Z,41.09
2023-02-17T12:01:25.944Z,40.90
2023-02-17T12:04:26.878Z,39.82
2023-02-17T12:07:40.951Z,39.93
2023-02-17T12:10:38.438Z,39.92
2023-02-17T12:13:32.742Z,40.04
2023-02-17T12:16:27.902Z,40.07
2023-02-17T12:19:37.193Z,39.45
2023-02-17T12:22:28.148Z,39.71
2023-02-17T12:25:26.155Z,39.66
2023-02-17T12:28:29.727Z,39.70
2023-02-17T12:31:27.762Z,38.25
2023-02-17T12:34:21.213Z,38.80
2023-02-17T12:37:08.619Z,38.47
2023-02-17T12:39:56.225Z,38.35
2023-02-17T12:42:44.964Z,38.61
2023-02-17T12:45:38.392Z,38.78
2023-02-17T12:48:35.357Z,39.02
2023-02-17T12:51:24.388Z,38.92
2023-02-17T12:54:18.495Z,38.10
2023-02-17T12:57:12.606Z,38.02
2023-02-17T12:59:59.864Z,37.51
2023-02-17T13:02:43.840Z,37.49
2023-02-17T13:05:35.361Z,38.42
2023-02-17T13:08:24.471Z,36.90
2023-02-17T13:11:12.517Z,36.69
2023-02-17T13:13:56.718Z,37.45
2023-02-17T13:16:44.811Z,36.70
2023-02-17T13:19:30.022Z,37.75
2023-02-17T13:22:24.433Z,38.02
2023-02-17T13:25:12.030Z,38.66
2023-02-17T13:27:57.716Z,38.66
2023-02-17T13:30:43.324Z,38.16
2023-02-17T13:33:32.890Z,38.72
2023-02-17T13:36:23.346Z,39.05
2023-02-17T13:39:33.322Z,39.15
2023-02-17T13:42:40.692Z,39.66
2023-02-17T13:45:27.884Z,39.84
2023-02-17T13:48:23.773Z,39.94
2023-02-17T13:51:09.904Z,40.50
2023-02-17T13:53:54.286Z,40.81
2023-02-17T13:56:41.208Z,40.92
2023-02-17T13:59:28.345Z,40.60
2023-02-17T14:02:35.159Z,41.14
2023-02-17T14:05:22.450Z,41.70
2023-02-17T14:08:09.079Z,41.89
2023-02-17T14:10:53.260Z,42.02
2023-02-17T14:13:40.569Z,42.26
2023-02-17T14:16:30.796Z,42.54
2023-02-17T14:19:17.736Z,42.25
2023-02-17T14:22:04.918Z,43.37
2023-02-17T14:25:00.136Z,43.52
2023-02-17T14:27:45.998Z,43.64
2023-02-17T14:30:33.669Z,43.75
2023-02-17T14:33:23.947Z,43.80
2023-02-17T14:36:11.271Z,43.98
2023-02-17T14:38:57.145Z,44.29
2023-02-17T14:41:41.063Z,44.34
2023-02-17T14:44:25.147Z,44.17
2023-02-17T14:47:10.445Z,43.66
2023-02-17T14:49:54.464Z,44.28
2023-02-17T14:52:43.040Z,44.45
2023-02-17T14:55:34.200Z,44.77
2023-02-17T14:58:21.246Z,44.65
2023-02-17T15:01:06.075Z,44.61
2023-02-17T15:03:51.938Z,44.86
2023-02-17T15:06:41.006Z,45.45
2023-02-17T15:09:29.738Z,45.04
2023-02-17T15:12:16.309Z,45.93
2023-02-17T15:15:00.082Z,46.06
2023-02-17T15:17:44.559Z,46.26
2023-02-17T15:20:29.856Z,46.44
2023-02-17T15:23:15.847Z,46.49
2023-02-17T15:26:00.470Z,46.79
2023-02-17T15:28:44.644Z,47.39
2023-02-17T15:31:31.445Z,47.73
2023-02-17T15:34:17.905Z,48.87
2023-02-17T15:37:03.571Z,48.62
2023-02-17T15:39:47.516Z,49.25
2023-02-17T15:42:31.498Z,49.76
2023-02-17T15:45:18.385Z,50.34
2023-02-17T15:48:05.693Z,50.44
2023-02-17T15:50:49.883Z,50.72
2023-02-17T15:53:35.206Z,51.18
2023-02-17T15:56:22.706Z,51.57
2023-02-17T15:59:13.223Z,51.80
2023-02-17T16:01:57.644Z,53.09
2023-02-17T16:04:41.678Z,53.21
2023-02-17T16:07:25.742Z,53.81
2023-02-17T16:10:13.658Z,54.78
2023-02-17T16:12:59.575Z,54.68
2023-02-17T16:15:44.661Z,54.37
2023-02-17T16:18:28.533Z,55.13
2023-02-17T16:21:14.198Z,55.38
2023-02-17T16:24:00.454Z,55.60
2023-02-17T16:26:45.829Z,55.65
2023-02-17T16:29:29.786Z,55.85
2023-02-17T16:32:14.419Z,55.66
2023-02-17T16:34:58.594Z,56.19
2023-02-17T16:37:42.960Z,56.23
2023-02-17T16:40:30.001Z,56.58
2023-02-17T16:43:18.232Z,56.71
2023-02-17T16:46:06.257Z,57.68
2023-02-17T16:48:50.789Z,57.67
2023-02-17T16:51:34.610Z,58.13
2023-02-17T16:54:19.540Z,58.16
2023-02-17T16:57:03.403Z,58.36
2023-02-17T16:59:49.146Z,59.54
2023-02-17T17:02:33.131Z,59.76
2023-02-17T17:05:18.114Z,60.52
2023-02-17T17:08:02.059Z,59.78
2023-02-17T17:10:47.652Z,59.39
2023-02-17T17:13:31.767Z,59.22
2023-02-17T17:16:20.284Z,59.36
2023-02-17T17:19:05.085Z,60.16
2023-02-17T17:21:49.427Z,58.98
2023-02-17T17:24:33.507Z,58.57
2023-02-17T17:27:17.414Z,58.96
2023-02-17T17:30:01.465Z,58.53
2023-02-17T17:32:49.181Z,58.83
2023-02-17T17:35:33.477Z,58.59
2023-02-17T17:38:17.459Z,58.09
2023-02-17T17:41:08.185Z,58.82
2023-02-17T17:43:52.623Z,58.77
2023-02-17T17:46:37.874Z,58.14
2023-02-17T17:49:23.241Z,57.68
2023-02-17T17:52:07.115Z,57.46
2023-02-17T17:54:51.320Z,57.09
2023-02-17T17:57:35.218Z,56.32
2023-02-17T18:00:20.619Z,56.09
2023-02-17T18:03:05.157Z,56.22
2023-02-17T18:05:50.693Z,55.84
2023-02-17T18:08:35.460Z,55.86
2023-02-17T18:11:23.144Z,55.60
2023-02-17T18:14:12.448Z,55.90
2023-02-17T18:16:57.025Z,55.90
2023-02-17T18:19:41.638Z,55.49
2023-02-17T18:22:27.146Z,55.20
2023-02-17T18:25:11.617Z,54.77
2023-02-17T18:27:57.048Z,54.53
2023-02-17T18:30:41.240Z,54.36
2023-02-17T18:33:25.436Z,54.18
2023-02-17T18:36:11.159Z,53.96
2023-02-17T18:38:56.611Z,54.39
2023-02-17T18:41:40.614Z,54.87
2023-02-17T18:44:26.367Z,55.45
2023-02-17T18:47:10.311Z,55.22
2023-02-17T18:49:54.496Z,55.00
2023-02-17T18:52:38.586Z,54.72
2023-02-17T18:55:24.004Z,54.28
2023-02-17T18:58:07.992Z,53.71
2023-02-17T19:00:52.100Z,53.87
2023-02-17T19:03:35.918Z,53.74
2023-02-17T19:06:22.724Z,53.43
2023-02-17T19:09:07.016Z,53.15
2023-02-17T19:11:52.394Z,52.79
2023-02-17T19:14:36.649Z,53.29
2023-02-17T19:17:20.892Z,53.27
2023-02-17T19:20:05.244Z,53.28
2023-02-17T19:22:49.285Z,53.55
2023-02-17T19:25:33.223Z,53.09
2023-02-17T19:28:18.484Z,52.54
2023-02-17T19:31:02.801Z,52.19
2023-02-17T19:33:47.292Z,51.84
2023-02-17T19:36:31.183Z,52.57
2023-02-17T19:39:15.122Z,53.92
2023-02-17T19:41:58.947Z,54.53
2023-02-17T19:44:44.566Z,54.25
2023-02-17T19:47:30.891Z,54.71
2023-02-17T19:50:17.811Z,54.85
2023-02-17T19:53:01.927Z,54.91
2023-02-17T19:55:45.878Z,55.59
2023-02-17T19:58:29.815Z,56.31
2023-02-17T20:01:18.211Z,55.80
2023-02-17T20:04:05.602Z,55.53
2023-02-17T20:06:49.686Z,55.45
2023-02-17T20:09:33.431Z,55.83
2023-02-17T20:12:17.965Z,56.14
2023-02-17T20:15:01.865Z,56.48
2023-02-17T20:17:48.690Z,56.27
2023-02-17T20:20:32.521Z,56.57
2023-02-17T20:23:16.497Z,56.79
2023-02-17T20:26:00.909Z,56.30
2023-02-17T20:28:45.124Z,57.50
2023-02-17T20:31:29.662Z,58.32
2023-02-17T20:34:27.174Z,58.17
2023-02-17T20:37:11.536Z,57.96
2023-02-17T20:39:55.624Z,57.89
2023-02-17T20:42:39.468Z,58.05
2023-02-17T20:45:23.532Z,57.61
2023-02-17T20:48:07.407Z,58.63
2023-02-17T20:50:52.656Z,57.57
2023-02-17T20:53:36.734Z,59.22
2023-02-17T20:56:22.971Z,60.40
2023-02-17T20:59:09.007Z,59.85
2023-02-17T21:01:53.152Z,60.00
2023-02-17T21:04:37.276Z,60.17
2023-02-17T21:07:22.501Z,59.86
2023-02-17T21:10:08.693Z,60.61
2023-02-17T21:12:52.621Z,60.41
2023-02-17T21:15:36.504Z,60.07
2023-02-17T21:18:20.612Z,60.84
2023-02-17T21:21:04.678Z,61.08
2023-02-17T21:23:50.028Z,60.94
2023-02-17T21:26:34.166Z,61.26
2023-02-17T21:29:18.603Z,61.01
2023-02-17T21:32:02.498Z,61.36
2023-02-17T21:34:46.527Z,61.42
2023-02-17T21:37:30.823Z,61.35
2023-02-17T21:40:16.386Z,61.87
2023-02-17T21:43:17.429Z,62.08
2023-02-17T21:46:01.490Z,61.03
2023-02-17T21:48:47.973Z,60.66
2023-02-17T21:51:32.195Z,61.45
2023-02-17T21:54:16.241Z,60.79
2023-02-17T21:57:04.228Z,60.58
2023-02-17T21:59:48.477Z,60.77
2023-02-17T22:02:32.535Z,60.19
2023-02-17T22:05:17.138Z,60.51
2023-02-17T22:08:00.904Z,60.62
2023-02-17T22:10:46.077Z,60.99
2023-02-17T22:13:31.264Z,61.99
2023-02-17T22:16:15.090Z,62.28
2023-02-17T22:18:58.967Z,62.18
2023-02-17T22:21:43.560Z,63.12
2023-02-17T22:24:28.101Z,63.34
2023-02-17T22:27:12.035Z,62.51
2023-02-17T22:29:57.982Z,61.57
2023-02-17T22:32:43.113Z,62.51
2023-02-17T22:35:26.907Z,62.03
2023-02-17T22:38:11.659Z,61.30
2023-02-17T22:40:55.548Z,61.08
2023-02-17T22:43:42.213Z,61.33
2023-02-17T22:46:27.809Z,61.69
2023-02-17T22:49:12.043Z,61.67
2023-02-17T22:51:55.868Z,60.73
2023-02-17T22:54:41.068Z,60.83
2023-02-17T22:57:24.936Z,60.88
2023-02-17T23:00:09.596Z,60.85
2023-02-17T23:02:54.875Z,60.56
2023-02-17T23:05:38.678Z,60.76
2023-02-17T23:08:22.539Z,60.57
2023-02-17T23:11:07.280Z,59.98
2023-02-17T23:13:51.122Z,59.67
2023-02-17T23:16:35.141Z,60.93
2023-02-17T23:19:22.761Z,60.54
2023-02-17T23:22:09.047Z,59.42
2023-02-17T23:24:52.803Z,58.39
2023-02-17T23:27:36.662Z,58.16
2023-02-17T23:30:23.174Z,57.66
2023-02-17T23:33:06.968Z,57.27
2023-02-17T23:35:52.143Z,57.56
2023-02-17T23:38:36.094Z,58.92
2023-02-17T23:41:19.833Z,59.21
2023-02-17T23:44:03.801Z,60.09
2023-02-17T23:46:47.904Z,59.71
2023-02-17T23:49:31.643Z,59.69
2023-02-17T23:52:16.829Z,60.89
2023-02-17T23:55:00.675Z,61.50
2023-02-17T23:57:44.390Z,61.41
